createdAt,value
2022-08-16T00:01:41.067Z,53.24
2022-08-16T00:04:09.657Z,53.10
2022-08-16T00:06:39.575Z,53.54
2022-08-16T00:09:07.383Z,53.42
2022-08-16T00:11:39.007Z,53.55
2022-08-16T00:14:08.990Z,53.73
2022-08-16T00:17:01.026Z,53.40
2022-08-16T00:19:28.386Z,53.77
2022-08-16T00:22:13.402Z,53.55
2022-08-16T00:24:46.562Z,53.61
2022-08-16T00:27:14.313Z,53.18
2022-08-16T00:29:41.362Z,53.69
2022-08-16T00:32:08.760Z,53.59
2022-08-16T00:34:44.885Z,54.07
2022-08-16T00:37:24.609Z,53.71
2022-08-16T00:39:57.413Z,54.25
2022-08-16T00:42:29.488Z,54.65
2022-08-16T00:45:06.364Z,54.96
2022-08-16T00:47:34.855Z,55.19
2022-08-16T00:50:05.408Z,55.41
2022-08-16T00:52:38.554Z,55.30
2022-08-16T00:55:12.777Z,55.63
2022-08-16T00:57:59.806Z,55.48
2022-08-16T01:00:29.951Z,55.71
2022-08-16T01:03:01.154Z,55.96
2022-08-16T01:05:29.809Z,56.76
2022-08-16T01:10:31.564Z,57.44
2022-08-16T01:13:04.529Z,57.45
2022-08-16T01:15:34.044Z,57.82
2022-08-16T01:18:02.677Z,58.23
2022-08-16T01:20:34.064Z,58.86
2022-08-16T01:23:17.282Z,59.31
2022-08-16T01:25:59.912Z,59.11
2022-08-16T01:28:38.857Z,59.34
2022-08-16T01:31:14.794Z,59.32
2022-08-16T01:33:44.688Z,59.24
2022-08-16T01:36:12.937Z,59.68
2022-08-16T01:38:47.102Z,59.73
2022-08-16T01:41:21.208Z,59.45
2022-08-16T01:43:53.697Z,59.42
2022-08-16T01:49:10.059Z,60.13
2022-08-16T01:51:39.348Z,59.85
2022-08-16T01:54:07.269Z,60.42
2022-08-16T01:56:35.110Z,60.04
2022-08-16T01:59:04.974Z,60.12
2022-08-16T02:01:32.401Z,60.45
2022-08-16T02:04:10.407Z,60.61
2022-08-16T02:06:45.239Z,60.41
2022-08-16T02:09:14.821Z,60.60
2022-08-16T02:11:52.858Z,60.92
2022-08-16T02:14:26.471Z,61.15
2022-08-16T02:16:56.275Z,61.23
2022-08-16T02:19:24.117Z,61.14
2022-08-16T02:22:34.382Z,61.91
2022-08-16T02:25:01.727Z,61.74
2022-08-16T02:27:28.386Z,61.91
2022-08-16T02:30:04.925Z,61.71
2022-08-16T02:32:50.537Z,61.51
2022-08-16T02:35:19.127Z,62.16
2022-08-16T02:37:52.642Z,62.15
2022-08-16T02:40:22.866Z,61.75
2022-08-16T02:42:51.044Z,61.60
2022-08-16T02:45:20.818Z,61.76
2022-08-16T02:48:00.145Z,61.48
2022-08-16T02:50:55.093Z,61.76
2022-08-16T02:53:18.005Z,61.61
2022-08-16T02:55:45.294Z,61.81
2022-08-16T02:58:17.134Z,61.83
2022-08-16T03:00:45.498Z,61.76
2022-08-16T03:03:17.729Z,62.34
2022-08-16T03:05:45.555Z,62.12
2022-08-16T03:08:50.809Z,62.22
2022-08-16T03:11:16.968Z,61.89
2022-08-16T03:13:51.302Z,62.49
2022-08-16T03:16:38.160Z,62.37
2022-08-16T03:19:07.702Z,61.88
2022-08-16T03:21:37.989Z,62.09
2022-08-16T03:24:28.425Z,61.91
2022-08-16T03:26:57.761Z,62.20
2022-08-16T03:29:29.964Z,62.20
2022-08-16T03:31:59.327Z,62.70
2022-08-16T03:34:27.440Z,63.26
2022-08-16T03:36:54.878Z,62.81
2022-08-16T03:39:22.337Z,63.37
2022-08-16T03:41:59.137Z,63.41
2022-08-16T03:44:44.351Z,63.78
2022-08-16T03:47:12.817Z,63.63
2022-08-16T03:49:47.558Z,62.87
2022-08-16T03:52:20.377Z,63.04
2022-08-16T03:54:53.312Z,63.02
2022-08-16T03:57:23.930Z,63.37
2022-08-16T03:59:59.397Z,63.80
2022-08-16T04:02:31.690Z,64.07
2022-08-16T04:04:58.655Z,64.17
2022-08-16T04:07:25.461Z,64.07
2022-08-16T04:09:52.517Z,63.92
2022-08-16T04:12:53.200Z,63.77
2022-08-16T04:15:09.242Z,63.75
2022-08-16T04:17:37.031Z,63.63
2022-08-16T04:20:31.650Z,64.30
2022-08-16T04:22:56.164Z,64.38
2022-08-16T04:25:23.679Z,64.26
2022-08-16T04:27:54.376Z,64.65
2022-08-16T04:30:32.330Z,64.63
2022-08-16T04:33:02.551Z,64.32
2022-08-16T04:35:34.002Z,64.67
2022-08-16T04:38:10.960Z,64.52
2022-08-16T04:40:48.001Z,64.20
2022-08-16T04:43:17.531Z,64.36
2022-08-16T04:45:44.674Z,64.13
2022-08-16T04:48:11.419Z,64.39
2022-08-16T04:50:49.322Z,64.09
2022-08-16T04:53:16.818Z,64.54
2022-08-16T04:55:45.958Z,64.98
2022-08-16T04:58:43.767Z,64.50
2022-08-16T05:01:00.549Z,65.41
2022-08-16T05:03:27.684Z,65.37
2022-08-16T05:05:59.025Z,65.19
2022-08-16T05:08:30.771Z,64.82
2022-08-16T05:11:01.283Z,65.31
2022-08-16T05:13:41.799Z,65.53
2022-08-16T05:16:19.822Z,65.53
2022-08-16T05:18:48.728Z,66.19
2022-08-16T05:21:15.330Z,65.69
2022-08-16T05:23:51.453Z,66.17
2022-08-16T05:26:24.475Z,66.06
2022-08-16T05:28:55.719Z,65.65
2022-08-16T05:31:29.819Z,65.98
2022-08-16T05:33:59.101Z,66.21
2022-08-16T05:36:34.336Z,66.18
2022-08-16T05:39:09.565Z,67.08
2022-08-16T05:41:45.173Z,66.33
2022-08-16T05:44:23.078Z,66.35
2022-08-16T05:47:00.230Z,66.41
2022-08-16T05:49:39.830Z,66.15
2022-08-16T05:52:11.598Z,66.58
2022-08-16T05:54:47.814Z,66.17
2022-08-16T05:57:25.662Z,66.38
2022-08-16T06:00:05.683Z,66.91
2022-08-16T06:02:35.938Z,66.41
2022-08-16T06:05:03.863Z,66.39
2022-08-16T06:07:32.163Z,66.88
2022-08-16T06:10:00.221Z,66.52
2022-08-16T06:12:29.947Z,66.76
2022-08-16T06:15:01.796Z,66.57
2022-08-16T06:17:41.751Z,67.01
2022-08-16T06:20:14.519Z,66.66
2022-08-16T06:22:47.772Z,66.33
2022-08-16T06:25:36.459Z,66.60
2022-08-16T06:28:08.810Z,67.08
2022-08-16T06:30:36.254Z,66.38
2022-08-16T06:33:12.256Z,66.53
2022-08-16T06:35:40.599Z,66.79
2022-08-16T06:38:31.906Z,66.53
2022-08-16T06:40:56.658Z,66.44
2022-08-16T06:43:27.259Z,66.30
2022-08-16T06:45:54.745Z,66.21
2022-08-16T06:48:32.776Z,66.43
2022-08-16T06:51:01.595Z,66.41
2022-08-16T06:53:29.692Z,66.18
2022-08-16T06:55:58.750Z,66.66
2022-08-16T06:58:31.464Z,66.51
2022-08-16T07:01:00.234Z,66.46
2022-08-16T07:03:32.179Z,66.50
2022-08-16T07:05:59.677Z,66.03
2022-08-16T07:08:27.984Z,66.21
2022-08-16T07:10:56.639Z,65.95
2022-08-16T07:13:57.996Z,65.95
2022-08-16T07:16:15.527Z,65.92
2022-08-16T07:19:01.069Z,66.35
2022-08-16T07:21:45.621Z,66.29
2022-08-16T07:24:29.601Z,66.39
2022-08-16T07:26:57.692Z,66.10
2022-08-16T07:29:24.890Z,66.01
2022-08-16T07:31:53.841Z,66.24
2022-08-16T07:34:21.012Z,66.17
2022-08-16T07:37:06.950Z,66.19
2022-08-16T07:39:33.749Z,65.79
2022-08-16T07:42:01.047Z,65.81
2022-08-16T07:44:28.726Z,65.83
2022-08-16T07:47:15.409Z,65.72
2022-08-16T07:49:53.066Z,65.39
2022-08-16T07:52:25.031Z,65.66
2022-08-16T07:54:57.250Z,65.76
2022-08-16T07:57:24.655Z,65.38
2022-08-16T07:59:51.927Z,65.45
2022-08-16T08:02:20.376Z,65.24
2022-08-16T08:04:48.737Z,65.55
2022-08-16T08:07:16.294Z,65.64
2022-08-16T08:09:44.051Z,65.78
2022-08-16T08:12:32.182Z,65.69
2022-08-16T08:14:59.498Z,65.98
2022-08-16T08:17:43.170Z,65.69
2022-08-16T08:20:26.432Z,65.75
2022-08-16T08:23:00.619Z,65.26
2022-08-16T08:25:52.676Z,65.41
2022-08-16T08:28:18.010Z,65.47
2022-08-16T08:30:51.277Z,65.28
2022-08-16T08:33:28.424Z,65.58
2022-08-16T08:36:00.914Z,65.13
2022-08-16T08:38:43.961Z,65.13
2022-08-16T08:41:12.779Z,65.39
2022-08-16T08:43:41.799Z,65.57
2022-08-16T08:46:17.953Z,65.10
2022-08-16T08:48:58.375Z,65.07
2022-08-16T08:51:35.520Z,65.43
2022-08-16T08:54:06.981Z,65.32
2022-08-16T08:56:37.504Z,65.28
2022-08-16T08:59:19.777Z,65.04
2022-08-16T09:01:57.760Z,65.00
2022-08-16T09:04:26.751Z,65.09
2022-08-16T09:06:54.506Z,64.89
2022-08-16T09:09:23.383Z,64.98
2022-08-16T09:11:53.767Z,64.88
2022-08-16T09:14:31.945Z,65.07
2022-08-16T09:17:03.699Z,65.09
2022-08-16T09:19:40.913Z,64.92
2022-08-16T09:22:20.673Z,64.99
2022-08-16T09:24:53.526Z,65.13
2022-08-16T09:27:23.557Z,64.99
2022-08-16T09:30:00.114Z,64.80
2022-08-16T09:32:30.503Z,64.51
2022-08-16T09:34:58.693Z,64.57
2022-08-16T09:37:29.359Z,64.57
2022-08-16T09:39:59.647Z,64.57
2022-08-16T09:42:28.334Z,63.79
2022-08-16T09:45:10.644Z,63.86
2022-08-16T09:47:56.674Z,63.97
2022-08-16T09:50:37.236Z,62.81
2022-08-16T09:53:15.126Z,62.56
2022-08-16T09:55:49.571Z,62.15
2022-08-16T09:58:41.600Z,62.24
2022-08-16T10:01:06.562Z,61.71
2022-08-16T10:03:35.586Z,60.63
2022-08-16T10:06:02.470Z,60.70
2022-08-16T10:08:29.108Z,60.06
2022-08-16T10:11:15.618Z,59.48
2022-08-16T10:13:51.243Z,58.73
2022-08-16T10:16:21.740Z,58.91
2022-08-16T10:19:01.804Z,58.25
2022-08-16T10:21:34.008Z,57.41
2022-08-16T10:24:03.655Z,57.10
2022-08-16T10:27:19.648Z,56.90
2022-08-16T10:29:19.912Z,56.11
2022-08-16T10:31:53.575Z,56.20
2022-08-16T10:34:30.917Z,56.13
2022-08-16T10:37:00.586Z,55.82
2022-08-16T10:39:32.852Z,55.60
2022-08-16T10:42:08.529Z,55.43
2022-08-16T10:44:35.311Z,54.94
2022-08-16T10:47:02.389Z,54.70
2022-08-16T10:49:29.351Z,54.76
2022-08-16T10:52:01.551Z,54.69
2022-08-16T10:54:59.201Z,54.34
2022-08-16T10:57:32.894Z,54.65
2022-08-16T11:00:01.355Z,54.24
2022-08-16T11:02:59.982Z,53.73
2022-08-16T11:05:17.527Z,53.37
2022-08-16T11:07:53.484Z,53.43
2022-08-16T11:13:57.399Z,54.04
2022-08-16T11:16:01.221Z,53.91
2022-08-16T11:19:03.784Z,53.65
2022-08-16T11:21:28.526Z,53.50
2022-08-16T11:23:58.035Z,53.64
2022-08-16T11:26:25.674Z,53.85
2022-08-16T11:31:40.248Z,53.88
2022-08-16T11:34:13.930Z,53.72
2022-08-16T11:36:53.719Z,53.43
2022-08-16T11:39:27.274Z,53.60
2022-08-16T11:41:56.135Z,53.38
2022-08-16T11:44:51.981Z,53.78
2022-08-16T11:47:11.337Z,54.06
2022-08-16T11:49:37.942Z,53.88
2022-08-16T11:52:05.232Z,53.28
2022-08-16T11:54:35.735Z,53.10
2022-08-16T11:57:03.476Z,52.68
2022-08-16T11:59:36.528Z,52.68
2022-08-16T12:02:30.899Z,52.76
2022-08-16T12:04:55.350Z,52.96
2022-08-16T12:07:23.832Z,53.15
2022-08-16T12:09:53.086Z,53.39
2022-08-16T12:12:20.333Z,53.01
2022-08-16T12:14:46.995Z,52.58
2022-08-16T12:17:14.360Z,52.33
2022-08-16T12:19:41.652Z,52.35
2022-08-16T12:22:19.893Z,52.18
2022-08-16T12:24:52.067Z,51.81
2022-08-16T12:27:23.058Z,51.93
2022-08-16T12:29:52.688Z,51.64
2022-08-16T12:32:38.257Z,52.34
2022-08-16T12:35:10.116Z,51.22
2022-08-16T12:37:36.932Z,51.88
2022-08-16T12:40:22.453Z,51.39
2022-08-16T12:42:54.106Z,51.73
2022-08-16T12:45:22.618Z,51.28
2022-08-16T12:48:32.578Z,50.37
2022-08-16T12:50:58.134Z,50.12
2022-08-16T12:53:31.921Z,50.15
2022-08-16T12:56:00.030Z,49.89
2022-08-16T12:58:49.604Z,49.29
2022-08-16T13:01:14.363Z,49.21
2022-08-16T13:03:41.616Z,49.77
2022-08-16T13:06:08.859Z,49.55
2022-08-16T13:08:36.311Z,49.26
2022-08-16T13:11:04.679Z,48.02
2022-08-16T13:13:35.989Z,47.29
2022-08-16T13:16:15.245Z,46.55
2022-08-16T13:18:52.330Z,47.26
2022-08-16T13:21:23.344Z,46.60
2022-08-16T13:23:51.039Z,46.30
2022-08-16T13:26:20.340Z,46.51
2022-08-16T13:28:47.726Z,46.45
2022-08-16T13:31:16.009Z,46.43
2022-08-16T13:33:46.657Z,46.46
2022-08-16T13:36:38.833Z,45.77
2022-08-16T13:39:01.518Z,45.54
2022-08-16T13:41:30.158Z,46.54
2022-08-16T13:43:59.356Z,46.30
2022-08-16T13:46:27.621Z,45.97
2022-08-16T13:48:56.239Z,45.74
2022-08-16T13:51:29.247Z,45.81
2022-08-16T13:54:02.679Z,45.59
2022-08-16T13:56:37.906Z,45.35
2022-08-16T13:59:16.597Z,45.51
2022-08-16T14:01:55.695Z,45.24
2022-08-16T14:04:26.704Z,45.81
2022-08-16T14:06:55.241Z,45.37
2022-08-16T14:09:23.726Z,44.64
2022-08-16T14:11:53.329Z,44.99
2022-08-16T14:14:28.382Z,44.42
2022-08-16T14:16:56.458Z,45.01
2022-08-16T14:19:23.088Z,44.78
2022-08-16T14:21:56.668Z,44.01
2022-08-16T14:24:37.089Z,44.15
2022-08-16T14:27:04.816Z,43.69
2022-08-16T14:29:35.141Z,42.89
2022-08-16T14:32:06.984Z,43.48
2022-08-16T14:34:33.623Z,43.58
2022-08-16T14:37:00.702Z,43.13
2022-08-16T14:39:27.353Z,43.66
2022-08-16T14:41:55.831Z,43.05
2022-08-16T14:44:23.572Z,42.96
2022-08-16T14:46:50.190Z,43.70
2022-08-16T14:49:19.289Z,42.72
2022-08-16T14:51:46.404Z,43.59
2022-08-16T14:54:15.101Z,44.12
2022-08-16T14:56:42.873Z,44.36
2022-08-16T14:59:13.498Z,44.66
2022-08-16T15:01:58.062Z,43.20
2022-08-16T15:04:39.244Z,43.18
2022-08-16T15:07:12.474Z,43.70
2022-08-16T15:09:44.213Z,42.62
2022-08-16T15:12:33.472Z,43.10
2022-08-16T15:15:12.030Z,43.82
2022-08-16T15:17:54.535Z,44.96
2022-08-16T15:20:29.134Z,45.49
2022-08-16T15:22:58.937Z,46.35
2022-08-16T15:25:30.669Z,47.02
2022-08-16T15:28:02.377Z,47.51
2022-08-16T15:30:44.775Z,48.40
2022-08-16T15:33:20.711Z,48.27
2022-08-16T15:35:50.149Z,48.63
2022-08-16T15:38:56.943Z,49.20
2022-08-16T15:41:04.871Z,49.25
2022-08-16T15:43:33.734Z,49.39
2022-08-16T15:46:35.839Z,49.65
2022-08-16T15:49:14.054Z,50.22
2022-08-16T15:51:43.629Z,50.26
2022-08-16T15:54:21.051Z,50.82
2022-08-16T15:57:01.555Z,50.82
2022-08-16T15:59:34.817Z,51.06
2022-08-16T16:02:20.571Z,51.11
2022-08-16T16:04:55.291Z,51.13
2022-08-16T16:07:22.121Z,51.27
2022-08-16T16:09:49.812Z,51.26
2022-08-16T16:12:50.373Z,51.50
2022-08-16T16:15:07.356Z,51.30
2022-08-16T16:17:34.308Z,51.42
2022-08-16T16:20:04.393Z,51.44
2022-08-16T16:22:32.030Z,51.43
2022-08-16T16:24:58.965Z,51.37
2022-08-16T16:27:25.593Z,51.47
2022-08-16T16:29:57.987Z,51.67
2022-08-16T16:32:34.330Z,51.26
2022-08-16T16:35:02.383Z,51.19
2022-08-16T16:37:31.142Z,50.96
2022-08-16T16:39:58.840Z,50.85
2022-08-16T16:42:29.981Z,50.20
2022-08-16T16:45:01.510Z,50.72
2022-08-16T16:47:30.144Z,50.45
2022-08-16T16:50:09.234Z,50.55
2022-08-16T16:52:44.661Z,50.10
2022-08-16T16:55:14.664Z,49.98
2022-08-16T16:58:03.211Z,49.56
2022-08-16T17:00:37.910Z,49.01
2022-08-16T17:03:17.214Z,50.28
2022-08-16T17:05:51.044Z,50.34
2022-08-16T17:08:25.646Z,51.29
2022-08-16T17:10:54.066Z,50.58
2022-08-16T17:13:23.846Z,51.08
2022-08-16T17:15:52.844Z,51.41
2022-08-16T17:19:14.457Z,51.00
2022-08-16T17:21:08.406Z,52.37
2022-08-16T17:23:58.511Z,52.90
2022-08-16T17:26:30.270Z,52.68
2022-08-16T17:29:02.594Z,53.19
2022-08-16T17:31:43.778Z,52.99
2022-08-16T17:34:28.870Z,53.59
2022-08-16T17:36:58.890Z,54.42
2022-08-16T17:39:29.496Z,54.13
2022-08-16T17:41:58.194Z,54.96
2022-08-16T17:44:25.366Z,55.36
2022-08-16T17:46:53.107Z,55.31
2022-08-16T17:49:21.244Z,56.38
2022-08-16T17:51:48.537Z,57.06
2022-08-16T17:54:20.365Z,57.14
2022-08-16T17:57:00.564Z,57.17
2022-08-16T17:59:28.917Z,58.12
2022-08-16T18:01:56.203Z,59.04
2022-08-16T18:04:48.468Z,59.03
2022-08-16T18:07:10.252Z,59.01
2022-08-16T18:09:37.029Z,59.29
2022-08-16T18:12:50.733Z,59.84
2022-08-16T18:15:08.518Z,59.62
2022-08-16T18:17:35.111Z,59.90
2022-08-16T18:20:02.235Z,59.45
2022-08-16T18:22:32.301Z,59.95
2022-08-16T18:24:59.694Z,60.32
2022-08-16T18:27:29.705Z,60.78
2022-08-16T18:29:56.329Z,60.44
2022-08-16T18:32:24.735Z,60.73
2022-08-16T18:34:54.361Z,60.68
2022-08-16T18:37:23.252Z,61.26
2022-08-16T18:39:50.208Z,61.51
2022-08-16T18:42:16.866Z,61.28
2022-08-16T18:44:44.358Z,61.51
2022-08-16T18:47:11.544Z,62.11
2022-08-16T18:49:38.306Z,62.10
2022-08-16T18:52:05.068Z,62.06
2022-08-16T18:54:33.462Z,62.41
2022-08-16T18:57:03.478Z,62.61
2022-08-16T18:59:34.024Z,62.91
2022-08-16T19:02:04.982Z,63.51
2022-08-16T19:04:55.213Z,64.00
2022-08-16T19:07:21.442Z,64.20
2022-08-16T19:09:48.083Z,64.58
2022-08-16T19:12:15.901Z,64.85
2022-08-16T19:14:44.238Z,64.86
2022-08-16T19:17:11.723Z,64.97
2022-08-16T19:19:38.355Z,64.91
2022-08-16T19:22:06.250Z,65.39
2022-08-16T19:24:32.840Z,65.25
2022-08-16T19:26:59.458Z,65.50
2022-08-16T19:29:28.579Z,65.68
2022-08-16T19:31:55.227Z,65.74
2022-08-16T19:34:21.932Z,65.84
2022-08-16T19:36:48.731Z,65.74
2022-08-16T19:39:16.502Z,65.87
2022-08-16T19:41:46.076Z,66.05
2022-08-16T19:44:13.514Z,66.18
2022-08-16T19:46:44.838Z,66.03
2022-08-16T19:49:16.200Z,65.83
2022-08-16T19:51:44.447Z,66.43
2022-08-16T19:54:11.058Z,66.73
2022-08-16T19:56:37.985Z,66.90
2022-08-16T19:59:21.934Z,67.03
2022-08-16T20:01:52.044Z,66.60
2022-08-16T20:04:19.527Z,67.34
2022-08-16T20:06:47.184Z,66.94
2022-08-16T20:09:15.855Z,66.80
2022-08-16T20:11:45.054Z,67.10
2022-08-16T20:14:24.243Z,66.98
2022-08-16T20:16:52.284Z,66.87
2022-08-16T20:19:19.389Z,67.35
2022-08-16T20:21:46.253Z,67.53
2022-08-16T20:24:32.924Z,67.37
2022-08-16T20:27:00.023Z,67.10
2022-08-16T20:29:28.188Z,67.40
2022-08-16T20:31:56.426Z,67.60
2022-08-16T20:34:23.534Z,67.51
2022-08-16T20:36:50.168Z,67.85
2022-08-16T20:39:17.212Z,67.54
2022-08-16T20:41:44.627Z,67.71
2022-08-16T20:44:12.711Z,67.91
2022-08-16T20:46:40.036Z,67.95
2022-08-16T20:49:08.987Z,67.87
2022-08-16T20:51:47.040Z,68.00
2022-08-16T20:54:18.068Z,67.86
2022-08-16T20:56:44.709Z,67.88
2022-08-16T20:59:11.293Z,67.89
2022-08-16T21:01:46.494Z,67.81
2022-08-16T21:04:19.385Z,67.74
2022-08-16T21:06:53.734Z,67.80
2022-08-16T21:09:24.163Z,67.85
2022-08-16T21:11:53.041Z,67.88
2022-08-16T21:14:19.686Z,67.73
2022-08-16T21:16:46.393Z,67.74
2022-08-16T21:19:13.272Z,67.54
2022-08-16T21:21:39.882Z,68.08
2022-08-16T21:24:06.595Z,68.02
2022-08-16T21:26:34.926Z,67.64
2022-08-16T21:29:07.732Z,68.35
2022-08-16T21:31:38.234Z,68.64
2022-08-16T21:34:04.848Z,68.63
2022-08-16T21:36:34.964Z,68.73
2022-08-16T21:39:04.818Z,68.80
2022-08-16T21:41:31.986Z,68.86
2022-08-16T21:43:58.584Z,68.73
2022-08-16T21:46:25.173Z,68.64
2022-08-16T21:48:51.799Z,69.10
2022-08-16T21:51:18.495Z,69.26
2022-08-16T21:53:45.152Z,69.29
2022-08-16T21:56:12.721Z,69.68
2022-08-16T21:58:46.241Z,69.52
2022-08-16T22:01:13.389Z,69.64
2022-08-16T22:03:40.012Z,69.66
2022-08-16T22:06:14.060Z,69.59
2022-08-16T22:08:46.717Z,69.66
2022-08-16T22:11:18.395Z,70.41
2022-08-16T22:13:56.471Z,69.54
2022-08-16T22:16:27.287Z,69.30
2022-08-16T22:18:53.937Z,69.48
2022-08-16T22:21:20.860Z,70.48
2022-08-16T22:23:56.667Z,70.41
2022-08-16T22:26:29.902Z,70.74
2022-08-16T22:29:02.555Z,70.70
2022-08-16T22:31:29.226Z,70.83
2022-08-16T22:33:56.786Z,70.82
2022-08-16T22:36:23.778Z,71.54
2022-08-16T22:38:58.239Z,71.15
2022-08-16T22:41:27.571Z,70.96
2022-08-16T22:43:54.239Z,71.62
2022-08-16T22:46:21.048Z,71.32
2022-08-16T22:48:50.442Z,71.41
2022-08-16T22:51:18.932Z,70.98
2022-08-16T22:53:45.846Z,71.49
2022-08-16T22:56:12.866Z,71.59
2022-08-16T22:58:39.664Z,71.33
2022-08-16T23:01:08.258Z,71.52
2022-08-16T23:03:35.912Z,71.92
2022-08-16T23:06:03.990Z,71.62
2022-08-16T23:08:39.984Z,71.60
2022-08-16T23:11:10.146Z,72.25
2022-08-16T23:13:36.912Z,72.00
2022-08-16T23:16:10.654Z,71.92
2022-08-16T23:18:37.628Z,72.41
2022-08-16T23:21:08.499Z,71.54
2022-08-16T23:23:35.844Z,71.99
2022-08-16T23:26:45.298Z,71.47
2022-08-16T23:28:50.155Z,71.67
2022-08-16T23:31:18.523Z,72.02
2022-08-16T23:33:45.963Z,72.07
2022-08-16T23:36:13.049Z,71.69
2022-08-16T23:38:40.151Z,71.37
2022-08-16T23:41:13.443Z,72.44
2022-08-16T23:43:43.238Z,71.85
2022-08-16T23:46:18.190Z,72.10
2022-08-16T23:49:56.292Z,72.46
2022-08-16T23:51:32.445Z,72.71
2022-08-16T23:54:00.044Z,72.31
2022-08-16T23:56:26.731Z,72.49
2022-08-16T23:59:02.674Z,72.76
